sensor_id;sensor_type;location;lat;lon;timestamp;P1;durP1;ratioP1;P2;durP2;ratioP2
59960;SDS011;55902;-37.980;-63.602;2024-03-23T00:51:55;7.80;;;3.70;;
59960;SDS011;55902;-37.980;-63.602;2024-03-23T00:54:31;9.35;;;4.35;;
59960;SDS011;55902;-37.980;-63.602;2024-03-23T00:57:07;10.02;;;3.67;;
59960;SDS011;55902;-37.980;-63.602;2024-03-23T00:59:43;9.95;;;3.63;;
59960;SDS011;55902;-37.980;-63.602;2024-03-23T01:02:27;11.27;;;3.88;;
59960;SDS011;55902;-37.980;-63.602;2024-03-23T01:05:30;9.63;;;3.80;;
59960;SDS011;55902;-37.980;-63.602;2024-03-23T01:07:57;10.27;;;3.17;;
59960;SDS011;55902;-37.980;-63.602;2024-03-23T01:10:28;4.90;;;2.10;;
59960;SDS011;55902;-37.980;-63.602;2024-03-23T01:12:56;9.40;;;3.15;;
59960;SDS011;55902;-37.980;-63.602;2024-03-23T01:15:23;11.00;;;1.85;;
59960;SDS011;55902;-37.980;-63.602;2024-03-23T01:17:49;8.05;;;2.00;;
59960;SDS011;55902;-37.980;-63.602;2024-03-23T01:20:16;6.65;;;2.67;;
59960;SDS011;55902;-37.980;-63.602;2024-03-23T01:22:43;3.65;;;1.70;;
59960;SDS011;55902;-37.980;-63.602;2024-03-23T01:25:10;4.90;;;2.28;;
59960;SDS011;55902;-37.980;-63.602;2024-03-23T01:27:38;5.35;;;1.77;;
59960;SDS011;55902;-37.980;-63.602;2024-03-23T01:30:05;5.28;;;1.83;;
59960;SDS011;55902;-37.980;-63.602;2024-03-23T01:32:33;4.68;;;1.75;;
59960;SDS011;55902;-37.980;-63.602;2024-03-23T01:35:00;5.80;;;2.15;;
59960;SDS011;55902;-37.980;-63.602;2024-03-23T01:37:26;6.55;;;1.70;;
59960;SDS011;55902;-37.980;-63.602;2024-03-23T01:39:53;5.78;;;2.13;;
59960;SDS011;55902;-37.980;-63.602;2024-03-23T01:42:20;7.65;;;2.20;;
59960;SDS011;55902;-37.980;-63.602;2024-03-23T01:44:47;5.47;;;2.10;;
59960;SDS011;55902;-37.980;-63.602;2024-03-23T01:47:14;6.30;;;2.30;;
59960;SDS011;55902;-37.980;-63.602;2024-03-23T01:49:41;7.25;;;2.50;;
59960;SDS011;55902;-37.980;-63.602;2024-03-23T01:52:08;7.18;;;2.28;;
59960;SDS011;55902;-37.980;-63.602;2024-03-23T01:54:35;8.18;;;2.28;;
59960;SDS011;55902;-37.980;-63.602;2024-03-23T01:57:02;5.82;;;1.90;;
59960;SDS011;55902;-37.980;-63.602;2024-03-23T01:59:30;6.30;;;2.97;;
59960;SDS011;55902;-37.980;-63.602;2024-03-23T02:01:57;6.28;;;1.90;;
59960;SDS011;55902;-37.980;-63.602;2024-03-23T02:04:24;4.40;;;1.50;;
59960;SDS011;55902;-37.980;-63.602;2024-03-23T02:06:51;4.70;;;1.45;;
59960;SDS011;55902;-37.980;-63.602;2024-03-23T02:09:18;5.57;;;1.38;;
59960;SDS011;55902;-37.980;-63.602;2024-03-23T02:11:45;2.42;;;1.33;;
59960;SDS011;55902;-37.980;-63.602;2024-03-23T02:14:12;4.00;;;1.30;;
59960;SDS011;55902;-37.980;-63.602;2024-03-23T02:16:39;3.78;;;1.35;;
59960;SDS011;55902;-37.980;-63.602;2024-03-23T02:19:07;6.35;;;1.40;;
59960;SDS011;55902;-37.980;-63.602;2024-03-23T02:21:33;3.92;;;1.40;;
59960;SDS011;55902;-37.980;-63.602;2024-03-23T02:24:00;5.40;;;1.30;;
59960;SDS011;55902;-37.980;-63.602;2024-03-23T02:26:31;4.75;;;1.40;;
59960;SDS011;55902;-37.980;-63.602;2024-03-23T02:28:57;5.97;;;1.30;;
59960;SDS011;55902;-37.980;-63.602;2024-03-23T02:31:28;4.38;;;1.42;;
59960;SDS011;55902;-37.980;-63.602;2024-03-23T02:33:54;3.10;;;1.40;;
59960;SDS011;55902;-37.980;-63.602;2024-03-23T02:36:21;3.35;;;1.40;;
59960;SDS011;55902;-37.980;-63.602;2024-03-23T02:38:49;3.40;;;1.30;;
59960;SDS011;55902;-37.980;-63.602;2024-03-23T02:41:21;6.90;;;1.60;;
59960;SDS011;55902;-37.980;-63.602;2024-03-23T02:46:59;3.17;;;1.40;;
59960;SDS011;55902;-37.980;-63.602;2024-03-23T02:49:42;4.63;;;1.70;;
59960;SDS011;55902;-37.980;-63.602;2024-03-23T02:52:11;3.40;;;1.60;;
59960;SDS011;55902;-37.980;-63.602;2024-03-23T02:54:41;7.72;;;1.50;;
59960;SDS011;55902;-37.980;-63.602;2024-03-23T02:57:18;5.10;;;1.40;;
59960;SDS011;55902;-37.980;-63.602;2024-03-23T03:00:00;5.45;;;1.60;;
59960;SDS011;55902;-37.980;-63.602;2024-03-23T03:12:32;5.15;;;1.55;;
59960;SDS011;55902;-37.980;-63.602;2024-03-23T03:14:59;2.78;;;1.42;;
59960;SDS011;55902;-37.980;-63.602;2024-03-23T03:17:26;4.47;;;1.63;;
59960;SDS011;55902;-37.980;-63.602;2024-03-23T03:19:52;4.28;;;1.50;;
59960;SDS011;55902;-37.980;-63.602;2024-03-23T03:22:21;4.35;;;1.60;;
59960;SDS011;55902;-37.980;-63.602;2024-03-23T03:24:49;4.32;;;1.52;;
59960;SDS011;55902;-37.980;-63.602;2024-03-23T03:27:16;3.00;;;1.50;;
59960;SDS011;55902;-37.980;-63.602;2024-03-23T03:29:43;2.42;;;1.40;;
59960;SDS011;55902;-37.980;-63.602;2024-03-23T03:32:15;4.65;;;1.60;;
59960;SDS011;55902;-37.980;-63.602;2024-03-23T03:34:42;5.57;;;1.55;;
59960;SDS011;55902;-37.980;-63.602;2024-03-23T03:37:15;5.88;;;1.50;;
59960;SDS011;55902;-37.980;-63.602;2024-03-23T03:39:51;6.22;;;1.70;;
59960;SDS011;55902;-37.980;-63.602;2024-03-23T03:45:15;4.03;;;1.42;;
59960;SDS011;55902;-37.980;-63.602;2024-03-23T03:48:05;4.18;;;1.63;;
59960;SDS011;55902;-37.980;-63.602;2024-03-23T03:51:00;3.03;;;1.50;;
59960;SDS011;55902;-37.980;-63.602;2024-03-23T03:54:13;5.90;;;1.63;;
59960;SDS011;55902;-37.980;-63.602;2024-03-23T03:57:02;6.13;;;1.60;;
59960;SDS011;55902;-37.980;-63.602;2024-03-23T03:59:29;4.22;;;1.60;;
59960;SDS011;55902;-37.980;-63.602;2024-03-23T04:02:01;4.20;;;1.55;;
59960;SDS011;55902;-37.980;-63.602;2024-03-23T04:04:33;4.60;;;1.75;;
59960;SDS011;55902;-37.980;-63.602;2024-03-23T04:07:00;7.60;;;1.80;;
59960;SDS011;55902;-37.980;-63.602;2024-03-23T04:09:42;4.28;;;1.42;;
59960;SDS011;55902;-37.980;-63.602;2024-03-23T04:26:14;4.55;;;1.60;;
59960;SDS011;55902;-37.980;-63.602;2024-03-23T04:36:17;5.25;;;1.50;;
59960;SDS011;55902;-37.980;-63.602;2024-03-23T04:38:59;5.28;;;1.50;;
59960;SDS011;55902;-37.980;-63.602;2024-03-23T04:42:14;4.65;;;1.45;;
59960;SDS011;55902;-37.980;-63.602;2024-03-23T04:58:02;6.45;;;1.73;;
59960;SDS011;55902;-37.980;-63.602;2024-03-23T05:04:07;5.53;;;1.60;;
59960;SDS011;55902;-37.980;-63.602;2024-03-23T05:07:25;4.47;;;1.70;;
59960;SDS011;55902;-37.980;-63.602;2024-03-23T05:20:38;5.32;;;2.03;;
59960;SDS011;55902;-37.980;-63.602;2024-03-23T05:26:49;5.68;;;1.75;;
59960;SDS011;55902;-37.980;-63.602;2024-03-23T05:29:59;5.38;;;1.67;;
59960;SDS011;55902;-37.980;-63.602;2024-03-23T05:33:14;5.45;;;1.80;;
59960;SDS011;55902;-37.980;-63.602;2024-03-23T05:47:06;5.30;;;1.63;;
59960;SDS011;55902;-37.980;-63.602;2024-03-23T05:49:33;5.60;;;1.80;;
59960;SDS011;55902;-37.980;-63.602;2024-03-23T05:52:01;5.32;;;1.80;;
59960;SDS011;55902;-37.980;-63.602;2024-03-23T05:54:29;7.15;;;2.22;;
59960;SDS011;55902;-37.980;-63.602;2024-03-23T05:56:56;6.05;;;1.80;;
59960;SDS011;55902;-37.980;-63.602;2024-03-23T05:59:24;6.40;;;1.65;;
59960;SDS011;55902;-37.980;-63.602;2024-03-23T06:01:52;5.13;;;1.73;;
59960;SDS011;55902;-37.980;-63.602;2024-03-23T06:04:19;7.10;;;1.70;;
59960;SDS011;55902;-37.980;-63.602;2024-03-23T06:06:50;4.32;;;1.80;;
59960;SDS011;55902;-37.980;-63.602;2024-03-23T06:09:20;7.13;;;1.60;;
59960;SDS011;55902;-37.980;-63.602;2024-03-23T06:11:48;5.38;;;1.80;;
59960;SDS011;55902;-37.980;-63.602;2024-03-23T06:14:15;6.70;;;1.80;;
59960;SDS011;55902;-37.980;-63.602;2024-03-23T06:16:42;3.88;;;1.70;;
59960;SDS011;55902;-37.980;-63.602;2024-03-23T06:19:08;7.75;;;1.85;;
59960;SDS011;55902;-37.980;-63.602;2024-03-23T06:21:35;7.45;;;1.88;;
59960;SDS011;55902;-37.980;-63.602;2024-03-23T06:24:02;4.03;;;1.70;;
59960;SDS011;55902;-37.980;-63.602;2024-03-23T06:26:30;7.53;;;1.90;;
59960;SDS011;55902;-37.980;-63.602;2024-03-23T06:28:56;3.90;;;1.60;;
59960;SDS011;55902;-37.980;-63.602;2024-03-23T06:31:23;4.30;;;1.70;;
59960;SDS011;55902;-37.980;-63.602;2024-03-23T06:33:50;5.20;;;2.03;;
59960;SDS011;55902;-37.980;-63.602;2024-03-23T06:36:17;7.10;;;1.80;;
59960;SDS011;55902;-37.980;-63.602;2024-03-23T06:38:45;4.95;;;1.90;;
59960;SDS011;55902;-37.980;-63.602;2024-03-23T06:41:12;5.70;;;1.90;;
59960;SDS011;55902;-37.980;-63.602;2024-03-23T06:43:39;5.30;;;1.75;;
59960;SDS011;55902;-37.980;-63.602;2024-03-23T06:46:06;5.13;;;1.60;;
59960;SDS011;55902;-37.980;-63.602;2024-03-23T06:48:33;5.00;;;1.90;;
59960;SDS011;55902;-37.980;-63.602;2024-03-23T06:51:00;5.35;;;1.73;;
59960;SDS011;55902;-37.980;-63.602;2024-03-23T06:53:26;6.80;;;1.70;;
59960;SDS011;55902;-37.980;-63.602;2024-03-23T06:55:54;7.82;;;1.70;;
59960;SDS011;55902;-37.980;-63.602;2024-03-23T06:58:21;4.13;;;1.65;;
59960;SDS011;55902;-37.980;-63.602;2024-03-23T07:00:52;4.57;;;1.80;;
59960;SDS011;55902;-37.980;-63.602;2024-03-23T07:03:19;5.20;;;1.70;;
59960;SDS011;55902;-37.980;-63.602;2024-03-23T07:05:47;4.50;;;1.90;;
59960;SDS011;55902;-37.980;-63.602;2024-03-23T07:08:14;5.25;;;1.67;;
59960;SDS011;55902;-37.980;-63.602;2024-03-23T07:10:46;6.10;;;1.75;;
59960;SDS011;55902;-37.980;-63.602;2024-03-23T07:13:13;3.85;;;1.60;;
59960;SDS011;55902;-37.980;-63.602;2024-03-23T07:15:40;3.28;;;1.58;;
59960;SDS011;55902;-37.980;-63.602;2024-03-23T07:18:07;3.92;;;2.00;;
59960;SDS011;55902;-37.980;-63.602;2024-03-23T07:20:34;4.60;;;1.60;;
59960;SDS011;55902;-37.980;-63.602;2024-03-23T07:23:01;4.18;;;1.90;;
59960;SDS011;55902;-37.980;-63.602;2024-03-23T07:25:31;4.38;;;1.75;;
59960;SDS011;55902;-37.980;-63.602;2024-03-23T07:27:58;4.75;;;1.83;;
59960;SDS011;55902;-37.980;-63.602;2024-03-23T07:30:25;5.07;;;1.83;;
59960;SDS011;55902;-37.980;-63.602;2024-03-23T07:32:55;5.75;;;1.80;;
59960;SDS011;55902;-37.980;-63.602;2024-03-23T07:35:25;4.85;;;1.80;;
59960;SDS011;55902;-37.980;-63.602;2024-03-23T07:37:55;3.67;;;1.80;;
59960;SDS011;55902;-37.980;-63.602;2024-03-23T07:43:06;6.32;;;2.10;;
59960;SDS011;55902;-37.980;-63.602;2024-03-23T07:45:33;5.03;;;1.80;;
59960;SDS011;55902;-37.980;-63.602;2024-03-23T07:48:02;6.68;;;2.00;;
59960;SDS011;55902;-37.980;-63.602;2024-03-23T07:50:30;3.05;;;1.80;;
59960;SDS011;55902;-37.980;-63.602;2024-03-23T07:52:57;6.32;;;2.10;;
59960;SDS011;55902;-37.980;-63.602;2024-03-23T07:55:32;4.30;;;2.08;;
59960;SDS011;55902;-37.980;-63.602;2024-03-23T07:58:02;3.20;;;1.67;;
59960;SDS011;55902;-37.980;-63.602;2024-03-23T08:00:43;4.47;;;1.98;;
59960;SDS011;55902;-37.980;-63.602;2024-03-23T08:05:56;4.03;;;1.85;;
59960;SDS011;55902;-37.980;-63.602;2024-03-23T08:08:41;4.70;;;1.80;;
59960;SDS011;55902;-37.980;-63.602;2024-03-23T08:15:25;6.00;;;1.90;;
59960;SDS011;55902;-37.980;-63.602;2024-03-23T08:24:47;5.97;;;2.00;;
59960;SDS011;55902;-37.980;-63.602;2024-03-23T08:27:20;4.65;;;2.00;;
59960;SDS011;55902;-37.980;-63.602;2024-03-23T08:29:49;5.88;;;1.90;;
59960;SDS011;55902;-37.980;-63.602;2024-03-23T08:32:21;5.28;;;1.98;;
59960;SDS011;55902;-37.980;-63.602;2024-03-23T08:34:52;4.65;;;1.92;;
59960;SDS011;55902;-37.980;-63.602;2024-03-23T08:37:19;7.75;;;2.03;;
59960;SDS011;55902;-37.980;-63.602;2024-03-23T08:39:58;7.47;;;1.98;;
59960;SDS011;55902;-37.980;-63.602;2024-03-23T08:42:46;4.68;;;2.15;;
59960;SDS011;55902;-37.980;-63.602;2024-03-23T08:45:19;6.97;;;2.00;;
59960;SDS011;55902;-37.980;-63.602;2024-03-23T08:47:46;5.60;;;1.75;;
59960;SDS011;55902;-37.980;-63.602;2024-03-23T08:50:13;8.15;;;2.10;;
59960;SDS011;55902;-37.980;-63.602;2024-03-23T08:52:40;4.78;;;1.70;;
59960;SDS011;55902;-37.980;-63.602;2024-03-23T08:55:07;5.05;;;1.90;;
59960;SDS011;55902;-37.980;-63.602;2024-03-23T08:57:35;6.47;;;1.92;;
59960;SDS011;55902;-37.980;-63.602;2024-03-23T09:00:02;4.43;;;1.80;;
59960;SDS011;55902;-37.980;-63.602;2024-03-23T09:02:31;5.97;;;2.05;;
59960;SDS011;55902;-37.980;-63.602;2024-03-23T09:04:58;6.18;;;1.90;;
59960;SDS011;55902;-37.980;-63.602;2024-03-23T09:07:32;5.20;;;1.80;;
59960;SDS011;55902;-37.980;-63.602;2024-03-23T09:09:59;6.68;;;1.80;;
59960;SDS011;55902;-37.980;-63.602;2024-03-23T09:12:26;4.75;;;1.90;;
59960;SDS011;55902;-37.980;-63.602;2024-03-23T09:14:53;6.00;;;1.85;;
59960;SDS011;55902;-37.980;-63.602;2024-03-23T09:17:20;6.40;;;2.25;;
59960;SDS011;55902;-37.980;-63.602;2024-03-23T09:19:47;4.22;;;1.90;;
59960;SDS011;55902;-37.980;-63.602;2024-03-23T09:22:14;6.63;;;2.13;;
59960;SDS011;55902;-37.980;-63.602;2024-03-23T09:24:41;6.00;;;1.88;;
59960;SDS011;55902;-37.980;-63.602;2024-03-23T09:27:08;4.43;;;2.00;;
59960;SDS011;55902;-37.980;-63.602;2024-03-23T09:29:34;3.60;;;1.83;;
59960;SDS011;55902;-37.980;-63.602;2024-03-23T09:32:01;4.03;;;1.90;;
59960;SDS011;55902;-37.980;-63.602;2024-03-23T09:34:29;5.75;;;1.83;;
59960;SDS011;55902;-37.980;-63.602;2024-03-23T09:36:55;7.00;;;2.67;;
59960;SDS011;55902;-37.980;-63.602;2024-03-23T09:39:25;6.93;;;2.10;;
59960;SDS011;55902;-37.980;-63.602;2024-03-23T09:41:56;3.85;;;1.80;;
59960;SDS011;55902;-37.980;-63.602;2024-03-23T09:44:24;7.85;;;1.95;;
59960;SDS011;55902;-37.980;-63.602;2024-03-23T09:46:54;4.07;;;1.73;;
59960;SDS011;55902;-37.980;-63.602;2024-03-23T09:49:21;5.55;;;2.20;;
59960;SDS011;55902;-37.980;-63.602;2024-03-23T09:51:49;5.32;;;1.90;;
59960;SDS011;55902;-37.980;-63.602;2024-03-23T09:54:16;4.15;;;1.77;;
59960;SDS011;55902;-37.980;-63.602;2024-03-23T09:56:43;6.45;;;2.03;;
59960;SDS011;55902;-37.980;-63.602;2024-03-23T09:59:10;6.47;;;1.80;;
59960;SDS011;55902;-37.980;-63.602;2024-03-23T10:01:37;4.95;;;2.10;;
59960;SDS011;55902;-37.980;-63.602;2024-03-23T10:04:04;5.45;;;1.90;;
59960;SDS011;55902;-37.980;-63.602;2024-03-23T10:06:32;3.63;;;1.70;;
59960;SDS011;55902;-37.980;-63.602;2024-03-23T10:08:59;4.00;;;1.83;;
59960;SDS011;55902;-37.980;-63.602;2024-03-23T10:11:26;5.68;;;1.90;;
59960;SDS011;55902;-37.980;-63.602;2024-03-23T10:13:54;5.50;;;1.77;;
59960;SDS011;55902;-37.980;-63.602;2024-03-23T10:16:24;4.32;;;1.80;;
59960;SDS011;55902;-37.980;-63.602;2024-03-23T10:18:52;6.70;;;1.80;;
59960;SDS011;55902;-37.980;-63.602;2024-03-23T10:21:19;6.40;;;1.90;;
59960;SDS011;55902;-37.980;-63.602;2024-03-23T10:23:46;5.30;;;1.85;;
59960;SDS011;55902;-37.980;-63.602;2024-03-23T10:28:57;4.22;;;1.70;;
59960;SDS011;55902;-37.980;-63.602;2024-03-23T10:31:33;6.07;;;1.90;;
59960;SDS011;55902;-37.980;-63.602;2024-03-23T10:34:06;6.30;;;2.20;;
59960;SDS011;55902;-37.980;-63.602;2024-03-23T10:36:34;5.40;;;2.03;;
59960;SDS011;55902;-37.980;-63.602;2024-03-23T10:39:06;4.70;;;1.98;;
59960;SDS011;55902;-37.980;-63.602;2024-03-23T10:41:34;7.57;;;2.05;;
59960;SDS011;55902;-37.980;-63.602;2024-03-23T10:44:01;6.47;;;2.33;;
59960;SDS011;55902;-37.980;-63.602;2024-03-23T10:46:29;4.05;;;2.10;;
59960;SDS011;55902;-37.980;-63.602;2024-03-23T10:48:57;5.70;;;1.92;;
59960;SDS011;55902;-37.980;-63.602;2024-03-23T10:51:24;6.57;;;2.05;;
59960;SDS011;55902;-37.980;-63.602;2024-03-23T10:53:51;4.68;;;1.88;;
59960;SDS011;55902;-37.980;-63.602;2024-03-23T10:56:21;7.93;;;1.92;;
59960;SDS011;55902;-37.980;-63.602;2024-03-23T10:58:49;3.80;;;1.80;;
59960;SDS011;55902;-37.980;-63.602;2024-03-23T11:01:16;5.50;;;2.15;;
59960;SDS011;55902;-37.980;-63.602;2024-03-23T11:03:47;5.38;;;2.20;;
59960;SDS011;55902;-37.980;-63.602;2024-03-23T11:17:38;6.75;;;2.25;;
59960;SDS011;55902;-37.980;-63.602;2024-03-23T11:20:05;5.70;;;1.95;;
59960;SDS011;55902;-37.980;-63.602;2024-03-23T11:25:19;5.30;;;2.00;;
59960;SDS011;55902;-37.980;-63.602;2024-03-23T11:27:48;7.15;;;2.40;;
59960;SDS011;55902;-37.980;-63.602;2024-03-23T11:30:20;4.63;;;1.83;;
59960;SDS011;55902;-37.980;-63.602;2024-03-23T11:32:52;4.22;;;1.88;;
59960;SDS011;55902;-37.980;-63.602;2024-03-23T11:35:37;5.32;;;2.17;;
59960;SDS011;55902;-37.980;-63.602;2024-03-23T11:38:08;4.85;;;2.00;;
59960;SDS011;55902;-37.980;-63.602;2024-03-23T11:40:39;6.18;;;2.10;;
59960;SDS011;55902;-37.980;-63.602;2024-03-23T11:46:29;5.22;;;1.98;;
59960;SDS011;55902;-37.980;-63.602;2024-03-23T11:48:55;5.85;;;2.58;;
59960;SDS011;55902;-37.980;-63.602;2024-03-23T11:51:23;7.88;;;1.90;;
59960;SDS011;55902;-37.980;-63.602;2024-03-23T11:53:54;4.40;;;1.83;;
59960;SDS011;55902;-37.980;-63.602;2024-03-23T11:56:34;5.82;;;1.92;;
59960;SDS011;55902;-37.980;-63.602;2024-03-23T11:59:00;5.57;;;2.13;;
59960;SDS011;55902;-37.980;-63.602;2024-03-23T12:01:27;6.60;;;2.03;;
59960;SDS011;55902;-37.980;-63.602;2024-03-23T12:03:54;8.70;;;3.67;;
59960;SDS011;55902;-37.980;-63.602;2024-03-23T12:06:21;6.63;;;2.03;;
59960;SDS011;55902;-37.980;-63.602;2024-03-23T12:08:48;7.45;;;2.15;;
59960;SDS011;55902;-37.980;-63.602;2024-03-23T12:11:15;4.10;;;1.90;;
59960;SDS011;55902;-37.980;-63.602;2024-03-23T12:13:44;5.68;;;2.00;;
59960;SDS011;55902;-37.980;-63.602;2024-03-23T12:16:19;5.55;;;2.20;;
59960;SDS011;55902;-37.980;-63.602;2024-03-23T12:18:49;4.20;;;2.05;;
59960;SDS011;55902;-37.980;-63.602;2024-03-23T12:21:21;5.95;;;1.80;;
59960;SDS011;55902;-37.980;-63.602;2024-03-23T12:23:48;7.95;;;2.33;;
59960;SDS011;55902;-37.980;-63.602;2024-03-23T12:26:15;8.93;;;2.50;;
59960;SDS011;55902;-37.980;-63.602;2024-03-23T12:28:43;8.38;;;2.20;;
59960;SDS011;55902;-37.980;-63.602;2024-03-23T12:31:10;5.85;;;2.25;;
59960;SDS011;55902;-37.980;-63.602;2024-03-23T12:33:37;7.63;;;2.10;;
59960;SDS011;55902;-37.980;-63.602;2024-03-23T12:36:04;7.80;;;2.58;;
59960;SDS011;55902;-37.980;-63.602;2024-03-23T12:38:31;4.97;;;2.05;;
59960;SDS011;55902;-37.980;-63.602;2024-03-23T12:40:58;31.70;;;3.20;;
59960;SDS011;55902;-37.980;-63.602;2024-03-23T12:43:25;8.18;;;2.63;;
59960;SDS011;55902;-37.980;-63.602;2024-03-23T12:45:53;6.95;;;2.17;;
59960;SDS011;55902;-37.980;-63.602;2024-03-23T12:48:20;6.85;;;2.17;;
59960;SDS011;55902;-37.980;-63.602;2024-03-23T12:50:46;6.97;;;2.05;;
59960;SDS011;55902;-37.980;-63.602;2024-03-23T12:53:13;8.35;;;2.50;;
59960;SDS011;55902;-37.980;-63.602;2024-03-23T12:55:40;6.32;;;1.90;;
59960;SDS011;55902;-37.980;-63.602;2024-03-23T12:58:07;7.78;;;2.10;;
59960;SDS011;55902;-37.980;-63.602;2024-03-23T13:00:34;6.30;;;2.15;;
59960;SDS011;55902;-37.980;-63.602;2024-03-23T13:03:01;8.23;;;2.33;;
59960;SDS011;55902;-37.980;-63.602;2024-03-23T13:05:30;9.35;;;2.33;;
59960;SDS011;55902;-37.980;-63.602;2024-03-23T13:07:56;6.40;;;2.00;;
59960;SDS011;55902;-37.980;-63.602;2024-03-23T13:10:23;7.15;;;2.30;;
59960;SDS011;55902;-37.980;-63.602;2024-03-23T13:12:50;8.38;;;2.08;;
59960;SDS011;55902;-37.980;-63.602;2024-03-23T13:15:18;6.68;;;1.90;;
59960;SDS011;55902;-37.980;-63.602;2024-03-23T13:17:46;7.68;;;2.10;;
59960;SDS011;55902;-37.980;-63.602;2024-03-23T13:20:13;11.40;;;2.67;;
59960;SDS011;55902;-37.980;-63.602;2024-03-23T13:22:42;6.32;;;1.80;;
59960;SDS011;55902;-37.980;-63.602;2024-03-23T13:25:10;7.72;;;2.00;;
59960;SDS011;55902;-37.980;-63.602;2024-03-23T13:27:38;8.82;;;1.90;;
59960;SDS011;55902;-37.980;-63.602;2024-03-23T13:30:05;17.30;;;2.33;;
59960;SDS011;55902;-37.980;-63.602;2024-03-23T13:32:32;7.43;;;1.90;;
59960;SDS011;55902;-37.980;-63.602;2024-03-23T13:35:00;10.60;;;2.80;;
59960;SDS011;55902;-37.980;-63.602;2024-03-23T13:37:27;5.88;;;2.20;;
59960;SDS011;55902;-37.980;-63.602;2024-03-23T13:39:54;13.88;;;2.30;;
59960;SDS011;55902;-37.980;-63.602;2024-03-23T13:42:21;7.63;;;1.92;;
59960;SDS011;55902;-37.980;-63.602;2024-03-23T13:44:51;7.55;;;1.80;;
59960;SDS011;55902;-37.980;-63.602;2024-03-23T13:47:18;7.85;;;1.88;;
59960;SDS011;55902;-37.980;-63.602;2024-03-23T13:49:45;12.98;;;2.13;;
59960;SDS011;55902;-37.980;-63.602;2024-03-23T13:52:13;8.70;;;1.90;;
59960;SDS011;55902;-37.980;-63.602;2024-03-23T13:54:39;11.45;;;2.00;;
59960;SDS011;55902;-37.980;-63.602;2024-03-23T13:57:11;8.82;;;2.08;;
59960;SDS011;55902;-37.980;-63.602;2024-03-23T13:59:39;12.43;;;2.53;;
59960;SDS011;55902;-37.980;-63.602;2024-03-23T14:02:06;16.23;;;2.15;;
59960;SDS011;55902;-37.980;-63.602;2024-03-23T14:04:32;8.20;;;2.10;;
59960;SDS011;55902;-37.980;-63.602;2024-03-23T14:06:59;7.25;;;1.90;;
59960;SDS011;55902;-37.980;-63.602;2024-03-23T14:09:26;13.60;;;2.08;;
59960;SDS011;55902;-37.980;-63.602;2024-03-23T14:11:55;8.07;;;2.22;;
59960;SDS011;55902;-37.980;-63.602;2024-03-23T14:14:25;8.93;;;2.22;;
59960;SDS011;55902;-37.980;-63.602;2024-03-23T14:16:52;8.32;;;2.25;;
59960;SDS011;55902;-37.980;-63.602;2024-03-23T14:19:19;7.18;;;1.65;;
59960;SDS011;55902;-37.980;-63.602;2024-03-23T14:21:46;9.00;;;1.88;;
59960;SDS011;55902;-37.980;-63.602;2024-03-23T14:24:13;8.45;;;1.73;;
59960;SDS011;55902;-37.980;-63.602;2024-03-23T14:26:40;9.80;;;2.05;;
59960;SDS011;55902;-37.980;-63.602;2024-03-23T14:29:08;5.75;;;1.88;;
59960;SDS011;55902;-37.980;-63.602;2024-03-23T14:31:35;12.20;;;2.10;;
59960;SDS011;55902;-37.980;-63.602;2024-03-23T14:34:02;8.25;;;1.83;;
59960;SDS011;55902;-37.980;-63.602;2024-03-23T14:40:14;17.58;;;2.88;;
59960;SDS011;55902;-37.980;-63.602;2024-03-23T14:42:42;8.40;;;1.90;;
59960;SDS011;55902;-37.980;-63.602;2024-03-23T14:45:09;8.25;;;2.10;;
59960;SDS011;55902;-37.980;-63.602;2024-03-23T14:47:38;10.40;;;2.17;;
59960;SDS011;55902;-37.980;-63.602;2024-03-23T14:50:05;9.52;;;1.88;;
59960;SDS011;55902;-37.980;-63.602;2024-03-23T14:52:34;11.90;;;1.67;;
59960;SDS011;55902;-37.980;-63.602;2024-03-23T14:55:00;14.57;;;2.25;;
59960;SDS011;55902;-37.980;-63.602;2024-03-23T14:57:32;8.40;;;2.25;;
59960;SDS011;55902;-37.980;-63.602;2024-03-23T14:59:59;9.90;;;2.05;;
59960;SDS011;55902;-37.980;-63.602;2024-03-23T15:02:26;9.43;;;1.90;;
59960;SDS011;55902;-37.980;-63.602;2024-03-23T15:04:55;8.93;;;2.17;;
59960;SDS011;55902;-37.980;-63.602;2024-03-23T15:07:22;7.45;;;2.00;;
59960;SDS011;55902;-37.980;-63.602;2024-03-23T15:09:49;11.95;;;2.15;;
59960;SDS011;55902;-37.980;-63.602;2024-03-23T15:12:16;5.38;;;1.90;;
59960;SDS011;55902;-37.980;-63.602;2024-03-23T15:14:43;9.63;;;2.00;;
59960;SDS011;55902;-37.980;-63.602;2024-03-23T15:17:11;12.18;;;2.10;;
59960;SDS011;55902;-37.980;-63.602;2024-03-23T15:19:38;7.65;;;1.98;;
59960;SDS011;55902;-37.980;-63.602;2024-03-23T15:22:07;10.43;;;2.13;;
59960;SDS011;55902;-37.980;-63.602;2024-03-23T15:24:35;9.38;;;1.70;;
59960;SDS011;55902;-37.980;-63.602;2024-03-23T15:27:02;9.25;;;2.10;;
59960;SDS011;55902;-37.980;-63.602;2024-03-23T15:29:29;7.43;;;1.75;;
59960;SDS011;55902;-37.980;-63.602;2024-03-23T15:31:57;12.43;;;2.28;;
59960;SDS011;55902;-37.980;-63.602;2024-03-23T15:34:24;8.20;;;1.83;;
59960;SDS011;55902;-37.980;-63.602;2024-03-23T15:36:51;12.52;;;2.00;;
59960;SDS011;55902;-37.980;-63.602;2024-03-23T15:39:18;9.32;;;2.15;;
59960;SDS011;55902;-37.980;-63.602;2024-03-23T15:41:47;10.68;;;2.10;;
59960;SDS011;55902;-37.980;-63.602;2024-03-23T15:44:14;6.15;;;2.05;;
59960;SDS011;55902;-37.980;-63.602;2024-03-23T15:46:41;10.43;;;2.30;;
59960;SDS011;55902;-37.980;-63.602;2024-03-23T15:49:08;7.53;;;1.90;;
59960;SDS011;55902;-37.980;-63.602;2024-03-23T15:51:35;6.13;;;1.90;;
59960;SDS011;55902;-37.980;-63.602;2024-03-23T15:54:02;7.65;;;2.33;;
59960;SDS011;55902;-37.980;-63.602;2024-03-23T15:56:29;9.20;;;2.05;;
59960;SDS011;55902;-37.980;-63.602;2024-03-23T15:58:56;10.73;;;2.00;;
59960;SDS011;55902;-37.980;-63.602;2024-03-23T16:01:31;8.18;;;2.42;;
59960;SDS011;55902;-37.980;-63.602;2024-03-23T16:04:03;9.82;;;2.10;;
59960;SDS011;55902;-37.980;-63.602;2024-03-23T16:06:30;6.25;;;1.90;;
59960;SDS011;55902;-37.980;-63.602;2024-03-23T16:08:57;9.18;;;1.90;;
59960;SDS011;55902;-37.980;-63.602;2024-03-23T16:11:24;8.07;;;1.95;;
59960;SDS011;55902;-37.980;-63.602;2024-03-23T16:13:52;8.82;;;1.88;;
59960;SDS011;55902;-37.980;-63.602;2024-03-23T16:16:19;8.65;;;2.38;;
59960;SDS011;55902;-37.980;-63.602;2024-03-23T16:18:49;8.98;;;2.10;;
59960;SDS011;55902;-37.980;-63.602;2024-03-23T16:21:15;10.40;;;2.38;;
59960;SDS011;55902;-37.980;-63.602;2024-03-23T16:23:43;6.78;;;2.00;;
59960;SDS011;55902;-37.980;-63.602;2024-03-23T16:26:12;5.80;;;2.30;;
59960;SDS011;55902;-37.980;-63.602;2024-03-23T16:28:44;8.43;;;2.00;;
59960;SDS011;55902;-37.980;-63.602;2024-03-23T16:31:14;8.00;;;2.00;;
59960;SDS011;55902;-37.980;-63.602;2024-03-23T16:33:42;10.90;;;2.22;;
59960;SDS011;55902;-37.980;-63.602;2024-03-23T16:36:09;6.90;;;2.10;;
59960;SDS011;55902;-37.980;-63.602;2024-03-23T16:38:37;10.55;;;2.05;;
59960;SDS011;55902;-37.980;-63.602;2024-03-23T16:41:08;9.68;;;2.30;;
59960;SDS011;55902;-37.980;-63.602;2024-03-23T16:43:41;7.45;;;2.03;;
59960;SDS011;55902;-37.980;-63.602;2024-03-23T16:46:09;7.65;;;2.05;;
59960;SDS011;55902;-37.980;-63.602;2024-03-23T16:48:41;9.80;;;2.05;;
59960;SDS011;55902;-37.980;-63.602;2024-03-23T16:51:09;8.15;;;2.00;;
59960;SDS011;55902;-37.980;-63.602;2024-03-23T16:53:37;6.97;;;1.95;;
59960;SDS011;55902;-37.980;-63.602;2024-03-23T16:56:08;7.38;;;2.22;;
59960;SDS011;55902;-37.980;-63.602;2024-03-23T16:58:36;5.32;;;1.90;;
59960;SDS011;55902;-37.980;-63.602;2024-03-23T17:01:08;8.20;;;2.10;;
59960;SDS011;55902;-37.980;-63.602;2024-03-23T17:03:50;6.78;;;1.90;;
59960;SDS011;55902;-37.980;-63.602;2024-03-23T17:06:20;6.78;;;2.00;;
59960;SDS011;55902;-37.980;-63.602;2024-03-23T17:08:49;7.68;;;2.20;;
59960;SDS011;55902;-37.980;-63.602;2024-03-23T17:11:16;7.30;;;2.00;;
59960;SDS011;55902;-37.980;-63.602;2024-03-23T17:13:44;11.15;;;2.05;;